sensor_id;sensor_type;location;lat;lon;timestamp;noise_LAeq;noise_LA_min;noise_LA_max;noise_LA01;noise_LA95
72160;Laerm;60045;51.792;10.938;2024-03-07T00:01:17;28.99;28.24;31.80;;
72160;Laerm;60045;51.792;10.938;2024-03-07T00:03:43;30.54;28.30;36.61;;
72160;Laerm;60045;51.792;10.938;2024-03-07T00:06:09;32.50;28.21;39.54;;
72160;Laerm;60045;51.792;10.938;2024-03-07T00:08:35;37.57;28.96;50.09;;
72160;Laerm;60045;51.792;10.938;2024-03-07T00:11:01;64.86;31.97;79.45;;
72160;Laerm;60045;51.792;10.938;2024-03-07T00:13:27;30.24;28.42;35.45;;
72160;Laerm;60045;51.792;10.938;2024-03-07T00:15:53;32.04;28.36;42.12;;
72160;Laerm;60045;51.792;10.938;2024-03-07T00:18:18;31.71;28.24;37.93;;
72160;Laerm;60045;51.792;10.938;2024-03-07T00:20:44;29.24;28.26;30.96;;
72160;Laerm;60045;51.792;10.938;2024-03-07T00:23:10;30.90;28.37;39.25;;
72160;Laerm;60045;51.792;10.938;2024-03-07T00:25:36;32.27;28.32;40.19;;
72160;Laerm;60045;51.792;10.938;2024-03-07T00:28:02;29.52;28.42;32.97;;
72160;Laerm;60045;51.792;10.938;2024-03-07T00:30:28;31.37;28.48;37.68;;
72160;Laerm;60045;51.792;10.938;2024-03-07T00:32:55;29.88;28.35;32.39;;
72160;Laerm;60045;51.792;10.938;2024-03-07T00:35:21;30.07;28.51;37.01;;
72160;Laerm;60045;51.792;10.938;2024-03-07T00:37:46;31.07;28.77;37.42;;
72160;Laerm;60045;51.792;10.938;2024-03-07T00:40:12;30.24;28.46;34.73;;
72160;Laerm;60045;51.792;10.938;2024-03-07T00:42:38;31.82;28.99;38.08;;
72160;Laerm;60045;51.792;10.938;2024-03-07T00:45:04;32.33;28.34;39.31;;
72160;Laerm;60045;51.792;10.938;2024-03-07T00:47:30;30.81;28.52;39.43;;
72160;Laerm;60045;51.792;10.938;2024-03-07T00:49:57;56.57;28.48;72.99;;
72160;Laerm;60045;51.792;10.938;2024-03-07T00:52:22;31.97;29.07;38.96;;
72160;Laerm;60045;51.792;10.938;2024-03-07T00:54:48;47.51;28.61;64.38;;
72160;Laerm;60045;51.792;10.938;2024-03-07T00:57:14;30.44;28.64;36.32;;
72160;Laerm;60045;51.792;10.938;2024-03-07T00:59:40;31.44;29.16;36.72;;
72160;Laerm;60045;51.792;10.938;2024-03-07T01:02:06;30.53;28.49;39.68;;
72160;Laerm;60045;51.792;10.938;2024-03-07T01:04:32;61.63;28.53;78.63;;
72160;Laerm;60045;51.792;10.938;2024-03-07T01:06:58;34.43;29.14;44.54;;
72160;Laerm;60045;51.792;10.938;2024-03-07T01:09:25;32.95;29.47;41.68;;
72160;Laerm;60045;51.792;10.938;2024-03-07T01:11:51;32.16;29.35;37.09;;
72160;Laerm;60045;51.792;10.938;2024-03-07T01:14:16;31.08;29.68;34.33;;
72160;Laerm;60045;51.792;10.938;2024-03-07T01:16:42;54.86;29.92;73.16;;
72160;Laerm;60045;51.792;10.938;2024-03-07T01:19:08;31.62;28.28;45.74;;
72160;Laerm;60045;51.792;10.938;2024-03-07T01:21:34;31.67;28.90;36.95;;
72160;Laerm;60045;51.792;10.938;2024-03-07T01:24:00;35.32;30.74;43.80;;
72160;Laerm;60045;51.792;10.938;2024-03-07T01:26:26;49.85;29.69;66.28;;
72160;Laerm;60045;51.792;10.938;2024-03-07T01:28:52;31.81;29.24;38.03;;
72160;Laerm;60045;51.792;10.938;2024-03-07T01:31:18;31.15;29.30;35.13;;
72160;Laerm;60045;51.792;10.938;2024-03-07T01:33:43;30.13;28.88;35.47;;
72160;Laerm;60045;51.792;10.938;2024-03-07T01:36:09;32.27;29.74;37.21;;
72160;Laerm;60045;51.792;10.938;2024-03-07T01:38:35;32.65;29.91;40.60;;
72160;Laerm;60045;51.792;10.938;2024-03-07T01:41:01;33.21;29.33;41.32;;
72160;Laerm;60045;51.792;10.938;2024-03-07T01:43:27;30.60;28.84;35.46;;
72160;Laerm;60045;51.792;10.938;2024-03-07T01:45:56;31.58;29.06;38.80;;
72160;Laerm;60045;51.792;10.938;2024-03-07T01:48:27;32.45;29.70;40.16;;
72160;Laerm;60045;51.792;10.938;2024-03-07T01:50:56;52.91;32.00;70.97;;
72160;Laerm;60045;51.792;10.938;2024-03-07T01:53:22;52.71;30.57;70.74;;
72160;Laerm;60045;51.792;10.938;2024-03-07T01:55:50;33.31;30.29;40.91;;
72160;Laerm;60045;51.792;10.938;2024-03-07T01:58:17;34.34;30.31;40.67;;
72160;Laerm;60045;51.792;10.938;2024-03-07T02:00:43;30.75;28.09;35.37;;
72160;Laerm;60045;51.792;10.938;2024-03-07T02:03:09;28.57;27.91;30.00;;
72160;Laerm;60045;51.792;10.938;2024-03-07T02:05:35;30.32;28.28;40.04;;
72160;Laerm;60045;51.792;10.938;2024-03-07T02:08:01;31.06;28.98;35.86;;
72160;Laerm;60045;51.792;10.938;2024-03-07T02:10:26;33.45;30.04;37.62;;
72160;Laerm;60045;51.792;10.938;2024-03-07T02:12:52;34.26;30.48;41.18;;
72160;Laerm;60045;51.792;10.938;2024-03-07T02:15:18;32.01;29.26;38.45;;
72160;Laerm;60045;51.792;10.938;2024-03-07T02:17:44;29.89;28.39;32.83;;
72160;Laerm;60045;51.792;10.938;2024-03-07T02:20:10;61.65;28.87;79.18;;
72160;Laerm;60045;51.792;10.938;2024-03-07T02:22:36;30.68;28.27;37.94;;
72160;Laerm;60045;51.792;10.938;2024-03-07T02:25:02;31.38;28.57;38.72;;
72160;Laerm;60045;51.792;10.938;2024-03-07T02:27:28;50.39;29.68;66.66;;
72160;Laerm;60045;51.792;10.938;2024-03-07T02:29:54;31.36;29.33;36.84;;
72160;Laerm;60045;51.792;10.938;2024-03-07T02:32:20;61.87;30.47;79.73;;
72160;Laerm;60045;51.792;10.938;2024-03-07T02:34:46;59.90;29.72;76.72;;
72160;Laerm;60045;51.792;10.938;2024-03-07T02:37:12;33.83;29.98;38.44;;
72160;Laerm;60045;51.792;10.938;2024-03-07T02:39:38;64.03;32.86;82.65;;
72160;Laerm;60045;51.792;10.938;2024-03-07T02:42:04;41.66;30.88;54.33;;
72160;Laerm;60045;51.792;10.938;2024-03-07T02:44:30;33.95;30.70;38.77;;
72160;Laerm;60045;51.792;10.938;2024-03-07T02:46:57;33.55;30.36;42.59;;
72160;Laerm;60045;51.792;10.938;2024-03-07T02:49:22;35.77;30.11;45.60;;
72160;Laerm;60045;51.792;10.938;2024-03-07T02:51:48;52.42;32.31;69.43;;
72160;Laerm;60045;51.792;10.938;2024-03-07T02:54:14;31.83;29.42;34.72;;
72160;Laerm;60045;51.792;10.938;2024-03-07T02:56:40;30.90;29.16;37.51;;
72160;Laerm;60045;51.792;10.938;2024-03-07T02:59:05;51.82;29.15;68.69;;
72160;Laerm;60045;51.792;10.938;2024-03-07T03:01:31;33.10;29.07;41.80;;
72160;Laerm;60045;51.792;10.938;2024-03-07T03:03:57;32.17;29.46;41.50;;
72160;Laerm;60045;51.792;10.938;2024-03-07T03:06:23;45.60;29.08;61.88;;
72160;Laerm;60045;51.792;10.938;2024-03-07T03:08:49;41.02;30.75;60.38;;
72160;Laerm;60045;51.792;10.938;2024-03-07T03:11:15;34.43;30.59;38.73;;
72160;Laerm;60045;51.792;10.938;2024-03-07T03:13:40;31.92;29.97;36.06;;
72160;Laerm;60045;51.792;10.938;2024-03-07T03:16:06;31.63;29.49;36.55;;
72160;Laerm;60045;51.792;10.938;2024-03-07T03:18:33;33.58;29.71;38.63;;
72160;Laerm;60045;51.792;10.938;2024-03-07T03:20:59;34.48;29.87;57.60;;
72160;Laerm;60045;51.792;10.938;2024-03-07T03:23:25;32.57;30.32;36.27;;
72160;Laerm;60045;51.792;10.938;2024-03-07T03:25:50;37.13;33.51;45.39;;
72160;Laerm;60045;51.792;10.938;2024-03-07T03:28:16;51.31;30.93;67.75;;
72160;Laerm;60045;51.792;10.938;2024-03-07T03:30:44;33.95;30.41;40.01;;
72160;Laerm;60045;51.792;10.938;2024-03-07T03:33:09;57.61;30.87;72.20;;
72160;Laerm;60045;51.792;10.938;2024-03-07T03:35:38;53.15;31.04;68.99;;
72160;Laerm;60045;51.792;10.938;2024-03-07T03:38:04;57.29;30.64;78.77;;
72160;Laerm;60045;51.792;10.938;2024-03-07T03:40:30;61.64;29.64;79.29;;
72160;Laerm;60045;51.792;10.938;2024-03-07T03:42:56;54.99;30.53;73.08;;
72160;Laerm;60045;51.792;10.938;2024-03-07T03:45:22;50.48;30.49;66.47;;
72160;Laerm;60045;51.792;10.938;2024-03-07T03:47:50;48.05;30.33;63.59;;
72160;Laerm;60045;51.792;10.938;2024-03-07T03:50:16;31.58;29.88;35.36;;
72160;Laerm;60045;51.792;10.938;2024-03-07T03:52:42;50.98;31.79;67.49;;
72160;Laerm;60045;51.792;10.938;2024-03-07T03:55:08;49.56;31.20;66.60;;
72160;Laerm;60045;51.792;10.938;2024-03-07T03:57:34;53.98;31.81;71.40;;
72160;Laerm;60045;51.792;10.938;2024-03-07T04:00:01;54.07;31.02;71.50;;
72160;Laerm;60045;51.792;10.938;2024-03-07T04:02:32;55.77;31.58;71.95;;
72160;Laerm;60045;51.792;10.938;2024-03-07T04:04:58;56.28;32.60;72.82;;
72160;Laerm;60045;51.792;10.938;2024-03-07T04:07:24;59.51;32.04;75.09;;
72160;Laerm;60045;51.792;10.938;2024-03-07T04:09:50;54.85;31.61;70.50;;
72160;Laerm;60045;51.792;10.938;2024-03-07T04:12:16;57.02;32.20;70.63;;
72160;Laerm;60045;51.792;10.938;2024-03-07T04:14:45;54.80;32.88;73.01;;
72160;Laerm;60045;51.792;10.938;2024-03-07T04:17:10;59.23;34.92;70.54;;
72160;Laerm;60045;51.792;10.938;2024-03-07T04:19:40;55.32;32.26;69.01;;
72160;Laerm;60045;51.792;10.938;2024-03-07T04:22:06;59.60;33.73;73.34;;
72160;Laerm;60045;51.792;10.938;2024-03-07T04:24:33;62.63;34.42;75.86;;
72160;Laerm;60045;51.792;10.938;2024-03-07T04:26:59;52.16;31.93;65.07;;
72160;Laerm;60045;51.792;10.938;2024-03-07T04:29:25;52.50;31.61;68.70;;
72160;Laerm;60045;51.792;10.938;2024-03-07T04:31:51;66.77;34.79;83.26;;
72160;Laerm;60045;51.792;10.938;2024-03-07T04:34:17;61.58;36.52;73.61;;
72160;Laerm;60045;51.792;10.938;2024-03-07T04:36:43;56.73;33.94;72.43;;
72160;Laerm;60045;51.792;10.938;2024-03-07T04:39:08;60.40;34.57;74.40;;
72160;Laerm;60045;51.792;10.938;2024-03-07T04:41:47;61.68;36.80;72.16;;
72160;Laerm;60045;51.792;10.938;2024-03-07T04:44:13;65.83;35.13;84.63;;
72160;Laerm;60045;51.792;10.938;2024-03-07T04:46:38;62.04;36.37;72.29;;
72160;Laerm;60045;51.792;10.938;2024-03-07T04:49:07;57.46;34.90;74.43;;
72160;Laerm;60045;51.792;10.938;2024-03-07T04:51:34;62.83;34.27;76.66;;
72160;Laerm;60045;51.792;10.938;2024-03-07T04:53:59;43.20;33.46;58.02;;
72160;Laerm;60045;51.792;10.938;2024-03-07T04:56:26;61.33;36.09;75.66;;
72160;Laerm;60045;51.792;10.938;2024-03-07T04:58:51;62.62;36.23;76.49;;
72160;Laerm;60045;51.792;10.938;2024-03-07T05:01:19;56.18;36.54;70.25;;
72160;Laerm;60045;51.792;10.938;2024-03-07T05:03:45;62.74;37.73;75.95;;
72160;Laerm;60045;51.792;10.938;2024-03-07T05:06:11;66.48;36.01;80.45;;
72160;Laerm;60045;51.792;10.938;2024-03-07T05:08:36;62.95;36.90;74.73;;
72160;Laerm;60045;51.792;10.938;2024-03-07T05:11:02;61.29;36.84;76.38;;
72160;Laerm;60045;51.792;10.938;2024-03-07T05:13:29;65.19;36.24;77.49;;
72160;Laerm;60045;51.792;10.938;2024-03-07T05:15:56;67.67;38.60;79.28;;
72160;Laerm;60045;51.792;10.938;2024-03-07T05:18:22;67.78;38.87;82.60;;
72160;Laerm;60045;51.792;10.938;2024-03-07T05:20:48;68.71;37.66;83.74;;
72160;Laerm;60045;51.792;10.938;2024-03-07T05:23:14;60.04;40.12;72.81;;
72160;Laerm;60045;51.792;10.938;2024-03-07T05:25:39;59.81;35.84;73.05;;
72160;Laerm;60045;51.792;10.938;2024-03-07T05:28:10;59.21;38.90;71.52;;
72160;Laerm;60045;51.792;10.938;2024-03-07T05:30:36;64.53;34.76;79.96;;
72160;Laerm;60045;51.792;10.938;2024-03-07T05:33:02;63.44;37.08;73.33;;
72160;Laerm;60045;51.792;10.938;2024-03-07T05:35:28;63.17;39.81;75.73;;
72160;Laerm;60045;51.792;10.938;2024-03-07T05:37:54;60.43;36.34;77.08;;
72160;Laerm;60045;51.792;10.938;2024-03-07T05:40:21;60.70;34.94;77.68;;
72160;Laerm;60045;51.792;10.938;2024-03-07T05:42:47;66.72;41.59;79.80;;
72160;Laerm;60045;51.792;10.938;2024-03-07T05:45:13;66.12;36.91;79.41;;
72160;Laerm;60045;51.792;10.938;2024-03-07T05:47:40;67.27;37.67;81.61;;
72160;Laerm;60045;51.792;10.938;2024-03-07T05:50:06;63.12;36.86;76.05;;
72160;Laerm;60045;51.792;10.938;2024-03-07T05:52:35;61.57;38.08;73.74;;
72160;Laerm;60045;51.792;10.938;2024-03-07T05:55:01;67.05;40.31;80.85;;
72160;Laerm;60045;51.792;10.938;2024-03-07T05:57:27;57.09;35.42;70.92;;
72160;Laerm;60045;51.792;10.938;2024-03-07T05:59:53;66.28;36.04;84.12;;
72160;Laerm;60045;51.792;10.938;2024-03-07T06:02:19;62.08;38.23;74.46;;
72160;Laerm;60045;51.792;10.938;2024-03-07T06:04:45;57.27;36.64;71.04;;
72160;Laerm;60045;51.792;10.938;2024-03-07T06:07:11;65.46;36.55;80.18;;
72160;Laerm;60045;51.792;10.938;2024-03-07T06:09:37;65.19;39.13;80.33;;
72160;Laerm;60045;51.792;10.938;2024-03-07T06:12:03;57.38;35.32;70.49;;
72160;Laerm;60045;51.792;10.938;2024-03-07T06:14:29;63.35;37.05;76.53;;
72160;Laerm;60045;51.792;10.938;2024-03-07T06:16:55;58.42;34.94;72.80;;
72160;Laerm;60045;51.792;10.938;2024-03-07T06:19:23;61.52;37.22;74.32;;
72160;Laerm;60045;51.792;10.938;2024-03-07T06:21:48;65.27;37.57;80.79;;
72160;Laerm;60045;51.792;10.938;2024-03-07T06:24:14;61.41;35.93;78.77;;
72160;Laerm;60045;51.792;10.938;2024-03-07T06:26:42;62.20;37.40;75.34;;
72160;Laerm;60045;51.792;10.938;2024-03-07T06:29:14;64.81;38.67;76.94;;
72160;Laerm;60045;51.792;10.938;2024-03-07T06:31:44;62.32;36.59;73.83;;
72160;Laerm;60045;51.792;10.938;2024-03-07T06:34:12;67.45;37.05;81.41;;
72160;Laerm;60045;51.792;10.938;2024-03-07T06:36:38;52.92;36.01;67.63;;
72160;Laerm;60045;51.792;10.938;2024-03-07T06:39:05;66.12;38.85;81.07;;
72160;Laerm;60045;51.792;10.938;2024-03-07T06:41:32;63.73;38.92;77.16;;
72160;Laerm;60045;51.792;10.938;2024-03-07T06:43:58;66.68;37.69;80.43;;
72160;Laerm;60045;51.792;10.938;2024-03-07T06:46:23;59.22;37.22;73.65;;
72160;Laerm;60045;51.792;10.938;2024-03-07T06:48:49;56.85;34.35;69.63;;
72160;Laerm;60045;51.792;10.938;2024-03-07T06:51:16;57.10;36.64;71.25;;
72160;Laerm;60045;51.792;10.938;2024-03-07T06:53:43;58.54;38.07;68.64;;
72160;Laerm;60045;51.792;10.938;2024-03-07T06:56:08;62.95;35.99;77.17;;
72160;Laerm;60045;51.792;10.938;2024-03-07T06:58:34;61.37;36.73;73.62;;
72160;Laerm;60045;51.792;10.938;2024-03-07T07:01:01;66.38;36.37;79.96;;
72160;Laerm;60045;51.792;10.938;2024-03-07T07:03:32;62.29;39.55;75.97;;
72160;Laerm;60045;51.792;10.938;2024-03-07T07:05:57;59.87;39.39;72.28;;
72160;Laerm;60045;51.792;10.938;2024-03-07T07:08:23;54.55;38.76;70.32;;
72160;Laerm;60045;51.792;10.938;2024-03-07T07:10:49;60.97;40.35;75.23;;
72160;Laerm;60045;51.792;10.938;2024-03-07T07:13:15;66.75;40.47;81.92;;
72160;Laerm;60045;51.792;10.938;2024-03-07T07:15:41;47.57;38.23;54.92;;
72160;Laerm;60045;51.792;10.938;2024-03-07T07:18:08;62.66;42.13;73.65;;
72160;Laerm;60045;51.792;10.938;2024-03-07T07:20:35;57.23;38.98;72.59;;
72160;Laerm;60045;51.792;10.938;2024-03-07T07:23:01;66.45;39.61;83.30;;
72160;Laerm;60045;51.792;10.938;2024-03-07T07:25:28;55.13;39.14;67.67;;
72160;Laerm;60045;51.792;10.938;2024-03-07T07:27:54;57.81;38.98;71.71;;
72160;Laerm;60045;51.792;10.938;2024-03-07T07:30:21;64.81;41.76;79.94;;
72160;Laerm;60045;51.792;10.938;2024-03-07T07:32:51;61.38;39.63;76.97;;
72160;Laerm;60045;51.792;10.938;2024-03-07T07:35:18;65.75;44.06;80.35;;
72160;Laerm;60045;51.792;10.938;2024-03-07T07:37:45;59.92;42.10;72.98;;
72160;Laerm;60045;51.792;10.938;2024-03-07T07:40:13;68.51;41.56;84.78;;
72160;Laerm;60045;51.792;10.938;2024-03-07T07:42:42;58.73;38.37;77.12;;
72160;Laerm;60045;51.792;10.938;2024-03-07T07:45:09;63.15;38.48;77.41;;
72160;Laerm;60045;51.792;10.938;2024-03-07T07:47:41;50.09;38.08;65.02;;
72160;Laerm;60045;51.792;10.938;2024-03-07T07:50:07;59.46;38.30;72.90;;
72160;Laerm;60045;51.792;10.938;2024-03-07T07:52:41;59.43;39.27;73.73;;
72160;Laerm;60045;51.792;10.938;2024-03-07T07:55:07;61.27;41.07;75.02;;
72160;Laerm;60045;51.792;10.938;2024-03-07T07:57:40;63.35;40.94;78.35;;
72160;Laerm;60045;51.792;10.938;2024-03-07T08:00:05;65.03;43.40;78.88;;
72160;Laerm;60045;51.792;10.938;2024-03-07T08:02:33;60.56;42.15;71.85;;
72160;Laerm;60045;51.792;10.938;2024-03-07T08:04:59;63.91;42.45;78.23;;
72160;Laerm;60045;51.792;10.938;2024-03-07T08:07:26;60.19;41.09;70.56;;
72160;Laerm;60045;51.792;10.938;2024-03-07T08:09:51;63.66;38.54;79.58;;
72160;Laerm;60045;51.792;10.938;2024-03-07T08:12:17;61.05;42.17;72.87;;
72160;Laerm;60045;51.792;10.938;2024-03-07T08:14:43;62.19;40.60;75.23;;
72160;Laerm;60045;51.792;10.938;2024-03-07T08:17:09;58.69;35.89;71.79;;
72160;Laerm;60045;51.792;10.938;2024-03-07T08:19:36;60.73;39.17;71.88;;
72160;Laerm;60045;51.792;10.938;2024-03-07T08:22:01;57.70;37.55;72.94;;
72160;Laerm;60045;51.792;10.938;2024-03-07T08:24:27;63.26;35.35;78.78;;
72160;Laerm;60045;51.792;10.938;2024-03-07T08:26:53;60.64;40.70;72.44;;
72160;Laerm;60045;51.792;10.938;2024-03-07T08:29:19;61.66;39.21;72.86;;
72160;Laerm;60045;51.792;10.938;2024-03-07T08:31:45;60.35;40.99;73.83;;
72160;Laerm;60045;51.792;10.938;2024-03-07T08:34:11;58.03;38.86;73.11;;
72160;Laerm;60045;51.792;10.938;2024-03-07T08:36:38;61.49;40.05;73.10;;
72160;Laerm;60045;51.792;10.938;2024-03-07T08:39:04;67.51;40.58;81.23;;
72160;Laerm;60045;51.792;10.938;2024-03-07T08:41:35;67.43;43.23;81.93;;
72160;Laerm;60045;51.792;10.938;2024-03-07T08:44:05;60.63;40.03;73.10;;
72160;Laerm;60045;51.792;10.938;2024-03-07T08:46:31;65.87;38.78;81.88;;
72160;Laerm;60045;51.792;10.938;2024-03-07T08:48:57;63.72;40.12;76.66;;
72160;Laerm;60045;51.792;10.938;2024-03-07T08:51:23;60.96;39.68;72.39;;
72160;Laerm;60045;51.792;10.938;2024-03-07T08:53:48;58.33;38.46;72.86;;
72160;Laerm;60045;51.792;10.938;2024-03-07T08:56:15;56.85;36.71;73.61;;
72160;Laerm;60045;51.792;10.938;2024-03-07T08:58:41;60.73;37.64;76.33;;
72160;Laerm;60045;51.792;10.938;2024-03-07T09:01:08;65.88;44.16;81.08;;
72160;Laerm;60045;51.792;10.938;2024-03-07T09:03:34;59.90;40.20;74.56;;
72160;Laerm;60045;51.792;10.938;2024-03-07T09:06:00;65.21;41.92;79.22;;
72160;Laerm;60045;51.792;10.938;2024-03-07T09:08:25;58.47;38.46;71.05;;
72160;Laerm;60045;51.792;10.938;2024-03-07T09:10:51;67.44;42.82;79.72;;
72160;Laerm;60045;51.792;10.938;2024-03-07T09:13:20;57.70;39.43;71.24;;
72160;Laerm;60045;51.792;10.938;2024-03-07T09:15:46;64.75;43.33;79.08;;
72160;Laerm;60045;51.792;10.938;2024-03-07T09:18:11;59.43;41.54;70.74;;
72160;Laerm;60045;51.792;10.938;2024-03-07T09:20:37;62.02;39.35;73.12;;
72160;Laerm;60045;51.792;10.938;2024-03-07T09:23:03;60.24;41.97;73.44;;
72160;Laerm;60045;51.792;10.938;2024-03-07T09:25:29;55.92;38.56;69.32;;
72160;Laerm;60045;51.792;10.938;2024-03-07T09:27:58;65.30;41.24;79.96;;
72160;Laerm;60045;51.792;10.938;2024-03-07T09:30:25;60.48;39.88;72.05;;
72160;Laerm;60045;51.792;10.938;2024-03-07T09:32:52;58.36;38.05;73.59;;
72160;Laerm;60045;51.792;10.938;2024-03-07T09:35:20;58.24;38.21;71.50;;
72160;Laerm;60045;51.792;10.938;2024-03-07T09:37:46;60.22;41.56;75.31;;
72160;Laerm;60045;51.792;10.938;2024-03-07T09:40:13;57.93;39.07;69.53;;
72160;Laerm;60045;51.792;10.938;2024-03-07T09:45:08;63.08;40.04;77.49;;
72160;Laerm;60045;51.792;10.938;2024-03-07T09:47:36;62.25;39.10;73.52;;
72160;Laerm;60045;51.792;10.938;2024-03-07T09:50:02;52.80;36.07;70.35;;
72160;Laerm;60045;51.792;10.938;2024-03-07T09:52:27;63.88;38.14;75.93;;
72160;Laerm;60045;51.792;10.938;2024-03-07T09:54:55;63.36;42.86;76.34;;
72160;Laerm;60045;51.792;10.938;2024-03-07T09:57:21;55.92;38.09;69.65;;
72160;Laerm;60045;51.792;10.938;2024-03-07T09:59:48;64.35;38.22;77.79;;
72160;Laerm;60045;51.792;10.938;2024-03-07T10:02:16;64.17;38.11;78.97;;
72160;Laerm;60045;51.792;10.938;2024-03-07T10:04:43;64.27;38.24;78.17;;
72160;Laerm;60045;51.792;10.938;2024-03-07T10:07:14;61.09;42.32;73.48;;
72160;Laerm;60045;51.792;10.938;2024-03-07T10:09:40;65.13;42.21;78.14;;
72160;Laerm;60045;51.792;10.938;2024-03-07T10:12:06;64.08;43.61;78.73;;
72160;Laerm;60045;51.792;10.938;2024-03-07T10:14:35;62.76;42.80;73.67;;
72160;Laerm;60045;51.792;10.938;2024-03-07T10:17:02;57.21;39.64;70.36;;
72160;Laerm;60045;51.792;10.938;2024-03-07T10:19:28;60.06;39.78;72.29;;
72160;Laerm;60045;51.792;10.938;2024-03-07T10:21:55;63.28;41.32;80.11;;
72160;Laerm;60045;51.792;10.938;2024-03-07T10:24:26;64.94;41.20;80.76;;
72160;Laerm;60045;51.792;10.938;2024-03-07T10:26:52;61.75;39.45;78.41;;
72160;Laerm;60045;51.792;10.938;2024-03-07T10:29:21;58.24;38.68;71.83;;
72160;Laerm;60045;51.792;10.938;2024-03-07T10:31:48;64.43;41.04;79.10;;
72160;Laerm;60045;51.792;10.938;2024-03-07T10:34:13;57.41;38.95;72.77;;
72160;Laerm;60045;51.792;10.938;2024-03-07T10:36:40;57.04;37.65;70.18;;
72160;Laerm;60045;51.792;10.938;2024-03-07T10:39:08;64.44;40.68;78.17;;
72160;Laerm;60045;51.792;10.938;2024-03-07T10:41:44;59.04;39.42;70.28;;
72160;Laerm;60045;51.792;10.938;2024-03-07T10:44:11;59.38;40.54;74.33;;
72160;Laerm;60045;51.792;10.938;2024-03-07T10:46:38;58.03;38.84;70.03;;
72160;Laerm;60045;51.792;10.938;2024-03-07T10:49:05;68.54;39.56;88.77;;
72160;Laerm;60045;51.792;10.938;2024-03-07T10:51:40;60.90;41.29;71.59;;
72160;Laerm;60045;51.792;10.938;2024-03-07T10:54:20;66.82;41.57;81.78;;
72160;Laerm;60045;51.792;10.938;2024-03-07T10:59:41;58.79;38.75;72.38;;
72160;Laerm;60045;51.792;10.938;2024-03-07T11:04:49;58.18;42.27;71.93;;
72160;Laerm;60045;51.792;10.938;2024-03-07T11:07:17;63.95;41.93;76.36;;
72160;Laerm;60045;51.792;10.938;2024-03-07T11:09:43;60.42;38.66;75.10;;
72160;Laerm;60045;51.792;10.938;2024-03-07T11:12:11;55.63;36.91;70.69;;
72160;Laerm;60045;51.792;10.938;2024-03-07T11:14:37;60.71;38.96;76.98;;
72160;Laerm;60045;51.792;10.938;2024-03-07T11:17:04;61.21;38.23;74.29;;
72160;Laerm;60045;51.792;10.938;2024-03-07T11:19:31;64.22;38.72;81.25;;
72160;Laerm;60045;51.792;10.938;2024-03-07T11:22:01;66.37;42.81;81.24;;
72160;Laerm;60045;51.792;10.938;2024-03-07T11:24:28;58.05;39.08;74.29;;
72160;Laerm;60045;51.792;10.938;2024-03-07T11:26:55;65.87;43.51;80.02;;
72160;Laerm;60045;51.792;10.938;2024-03-07T11:32:12;57.40;38.45;73.03;;
72160;Laerm;60045;51.792;10.938;2024-03-07T11:34:39;64.81;40.88;78.16;;
72160;Laerm;60045;51.792;10.938;2024-03-07T11:37:11;59.30;39.24;73.47;;
72160;Laerm;60045;51.792;10.938;2024-03-07T11:39:47;54.32;37.62;67.47;;
72160;Laerm;60045;51.792;10.938;2024-03-07T11:42:23;61.85;40.13;71.28;;
72160;Laerm;60045;51.792;10.938;2024-03-07T11:44:53;56.62;36.65;70.94;;
72160;Laerm;60045;51.792;10.938;2024-03-07T11:47:21;59.85;39.55;72.47;;
72160;Laerm;60045;51.792;10.938;2024-03-07T11:49:48;59.13;39.54;74.11;;
72160;Laerm;60045;51.792;10.938;2024-03-07T11:52:14;60.04;39.84;74.97;;
72160;Laerm;60045;51.792;10.938;2024-03-07T11:54:41;63.89;43.90;77.08;;
72160;Laerm;60045;51.792;10.938;2024-03-07T11:57:17;60.18;39.97;73.17;;
72160;Laerm;60045;51.792;10.938;2024-03-07T11:59:44;64.27;40.88;79.96;;
72160;Laerm;60045;51.792;10.938;2024-03-07T12:02:14;65.67;43.80;82.38;;
72160;Laerm;60045;51.792;10.938;2024-03-07T12:04:43;58.38;39.82;72.41;;
72160;Laerm;60045;51.792;10.938;2024-03-07T12:07:09;59.67;37.88;72.40;;
72160;Laerm;60045;51.792;10.938;2024-03-07T12:09:36;60.62;40.48;72.54;;
72160;Laerm;60045;51.792;10.938;2024-03-07T12:12:02;59.90;39.47;72.38;;
72160;Laerm;60045;51.792;10.938;2024-03-07T12:14:28;56.25;36.37;70.95;;
72160;Laerm;60045;51.792;10.938;2024-03-07T12:16:54;59.93;40.26;72.67;;
72160;Laerm;60045;51.792;10.938;2024-03-07T12:19:21;55.88;39.92;72.56;;
72160;Laerm;60045;51.792;10.938;2024-03-07T12:21:47;64.88;41.09;81.77;;
72160;Laerm;60045;51.792;10.938;2024-03-07T12:24:14;60.71;41.30;71.15;;
72160;Laerm;60045;51.792;10.938;2024-03-07T12:26:40;61.60;41.90;75.44;;
72160;Laerm;60045;51.792;10.938;2024-03-07T12:29:08;62.61;43.44;74.53;;
72160;Laerm;60045;51.792;10.938;2024-03-07T12:31:37;55.89;39.29;69.83;;
72160;Laerm;60045;51.792;10.938;2024-03-07T12:34:02;60.97;39.19;75.11;;
72160;Laerm;60045;51.792;10.938;2024-03-07T12:36:30;59.77;39.56;73.23;;
72160;Laerm;60045;51.792;10.938;2024-03-07T12:39:25;59.99;39.60;72.10;;
72160;Laerm;60045;51.792;10.938;2024-03-07T12:41:57;66.43;41.14;80.28;;
72160;Laerm;60045;51.792;10.938;2024-03-07T12:44:23;60.82;40.75;72.84;;
72160;Laerm;60045;51.792;10.938;2024-03-07T12:46:50;63.48;41.04;76.89;;
72160;Laerm;60045;51.792;10.938;2024-03-07T12:49:21;62.67;42.59;77.81;;
72160;Laerm;60045;51.792;10.938;2024-03-07T12:51:52;61.70;41.89;79.00;;
72160;Laerm;60045;51.792;10.938;2024-03-07T12:54:18;63.96;41.37;79.48;;
72160;Laerm;60045;51.792;10.938;2024-03-07T12:56:44;58.73;39.86;73.30;;
72160;Laerm;60045;51.792;10.938;2024-03-07T12:59:10;59.37;38.41;72.80;;
72160;Laerm;60045;51.792;10.938;2024-03-07T13:01:36;59.80;41.59;72.01;;
72160;Laerm;60045;51.792;10.938;2024-03-07T13:04:05;63.21;39.52;80.69;;
72160;Laerm;60045;51.792;10.938;2024-03-07T13:06:32;59.75;38.41;75.97;;
72160;Laerm;60045;51.792;10.938;2024-03-07T13:08:58;57.72;38.85;70.83;;
72160;Laerm;60045;51.792;10.938;2024-03-07T13:11:24;60.29;39.03;71.53;;
72160;Laerm;60045;51.792;10.938;2024-03-07T13:13:54;63.84;42.19;76.73;;
72160;Laerm;60045;51.792;10.938;2024-03-07T13:16:21;59.02;41.22;72.72;;
72160;Laerm;60045;51.792;10.938;2024-03-07T13:18:52;60.16;38.55;71.57;;
72160;Laerm;60045;51.792;10.938;2024-03-07T13:21:19;60.31;38.92;75.20;;
72160;Laerm;60045;51.792;10.938;2024-03-07T13:23:45;63.25;39.65;79.95;;
72160;Laerm;60045;51.792;10.938;2024-03-07T13:26:11;61.42;40.05;71.45;;
72160;Laerm;60045;51.792;10.938;2024-03-07T13:28:42;61.30;40.67;80.95;;
72160;Laerm;60045;51.792;10.938;2024-03-07T13:31:09;63.87;42.50;75.28;;
72160;Laerm;60045;51.792;10.938;2024-03-07T13:33:36;65.40;41.99;80.85;;
72160;Laerm;60045;51.792;10.938;2024-03-07T13:36:02;68.11;44.51;82.22;;
72160;Laerm;60045;51.792;10.938;2024-03-07T13:38:29;62.20;44.78;75.16;;
72160;Laerm;60045;51.792;10.938;2024-03-07T13:40:54;56.49;39.74;69.20;;